createdAt,value
2017-07-08T00:01:17.658Z,15.70
2017-07-08T00:03:46.140Z,16.17
2017-07-08T00:06:15.358Z,18.00
2017-07-08T00:08:44.080Z,17.30
2017-07-08T00:11:13.218Z,18.27
2017-07-08T00:14:45.331Z,20.03
2017-07-08T00:17:13.836Z,19.23
2017-07-08T00:19:42.404Z,21.20
2017-07-08T00:22:10.946Z,22.43
2017-07-08T00:24:39.591Z,22.60
2017-07-08T00:27:08.655Z,21.90
2017-07-08T00:29:37.459Z,21.80
2017-07-08T00:32:06.027Z,23.83
2017-07-08T00:34:34.639Z,23.97
2017-07-08T00:37:03.154Z,24.53
2017-07-08T00:39:31.641Z,26.70
2017-07-08T00:42:00.097Z,26.10
2017-07-08T00:44:28.765Z,23.90
2017-07-08T00:46:57.253Z,26.70
2017-07-08T00:49:26.214Z,25.60
2017-07-08T00:51:54.722Z,23.30
2017-07-08T00:54:23.208Z,25.20
2017-07-08T00:56:51.671Z,24.70
2017-07-08T00:59:20.472Z,25.73
2017-07-08T01:01:48.977Z,24.80
2017-07-08T01:04:17.437Z,23.20
2017-07-08T01:06:46.441Z,24.03
2017-07-08T01:09:15.138Z,22.73
2017-07-08T01:11:43.671Z,21.73
2017-07-08T01:14:12.935Z,22.40
2017-07-08T01:16:41.587Z,24.03
2017-07-08T01:19:10.086Z,22.60
2017-07-08T01:21:38.727Z,22.33
2017-07-08T01:24:07.360Z,23.23
2017-07-08T01:26:35.920Z,21.47
2017-07-08T01:29:04.495Z,23.37
2017-07-08T01:31:34.445Z,20.00
2017-07-08T01:34:03.009Z,21.20
2017-07-08T01:36:31.473Z,23.93
2017-07-08T01:39:00.670Z,25.13
2017-07-08T01:41:29.169Z,25.07
2017-07-08T01:43:57.779Z,23.93
2017-07-08T01:46:26.299Z,25.57
2017-07-08T01:48:54.852Z,25.83
2017-07-08T01:51:23.821Z,25.97
2017-07-08T01:53:52.359Z,25.60
2017-07-08T01:56:20.933Z,24.87
2017-07-08T01:58:49.424Z,27.47
2017-07-08T02:01:17.907Z,27.97
2017-07-08T02:03:46.479Z,26.23
2017-07-08T02:06:14.992Z,25.80
2017-07-08T02:08:43.489Z,29.10
2017-07-08T02:11:12.108Z,30.17
2017-07-08T02:13:40.604Z,30.53
2017-07-08T02:16:09.320Z,28.93
2017-07-08T02:18:38.870Z,30.77
2017-07-08T02:21:07.396Z,32.17
2017-07-08T02:23:35.984Z,32.50
2017-07-08T02:26:04.486Z,34.97
2017-07-08T02:28:33.140Z,33.90
2017-07-08T02:31:01.655Z,34.30
2017-07-08T02:33:30.102Z,34.00
2017-07-08T02:35:58.826Z,33.67
2017-07-08T02:38:27.514Z,35.10
2017-07-08T02:40:56.030Z,35.50
2017-07-08T02:43:25.068Z,33.10
2017-07-08T02:45:53.735Z,33.93
2017-07-08T02:48:22.221Z,35.17
2017-07-08T02:50:50.681Z,35.13
2017-07-08T02:53:19.467Z,36.50
2017-07-08T02:55:47.997Z,34.17
2017-07-08T02:58:16.652Z,35.07
2017-07-08T03:00:45.443Z,34.73
2017-07-08T03:03:14.332Z,36.40
2017-07-08T03:05:42.830Z,35.80
2017-07-08T03:08:11.373Z,35.97
2017-07-08T03:10:39.833Z,37.70
2017-07-08T03:13:09.044Z,39.00
2017-07-08T03:15:38.389Z,37.70
2017-07-08T03:18:06.952Z,37.73
2017-07-08T03:20:35.643Z,37.63
2017-07-08T03:23:04.276Z,40.87
2017-07-08T03:25:32.793Z,39.93
2017-07-08T03:28:01.726Z,39.43
2017-07-08T03:30:30.214Z,39.50
2017-07-08T03:32:58.785Z,36.93
2017-07-08T03:35:27.469Z,38.90
2017-07-08T03:37:56.086Z,36.27
2017-07-08T03:40:25.353Z,36.90
2017-07-08T03:42:53.836Z,36.27
2017-07-08T03:45:22.296Z,37.50
2017-07-08T03:47:50.782Z,35.27
2017-07-08T03:50:19.595Z,37.57
2017-07-08T03:52:49.200Z,36.67
2017-07-08T03:55:18.009Z,34.20
2017-07-08T03:57:46.676Z,35.27
2017-07-08T04:00:15.351Z,37.53
2017-07-08T04:02:44.002Z,35.73
2017-07-08T04:05:12.546Z,35.50
2017-07-08T04:07:41.021Z,37.50
2017-07-08T04:10:09.729Z,36.30
2017-07-08T04:12:38.202Z,34.60
2017-07-08T04:15:06.769Z,34.63
2017-07-08T04:17:36.577Z,35.77
2017-07-08T04:20:05.186Z,37.23
2017-07-08T04:22:33.673Z,35.13
2017-07-08T04:25:02.147Z,36.67
2017-07-08T04:27:30.868Z,38.47
2017-07-08T04:29:59.509Z,37.10
2017-07-08T04:32:28.116Z,37.20
2017-07-08T04:34:56.834Z,41.00
2017-07-08T04:37:26.096Z,38.77
2017-07-08T04:39:54.666Z,37.20
2017-07-08T04:42:23.558Z,39.70
2017-07-08T04:44:52.398Z,40.43
2017-07-08T04:47:20.905Z,37.53
2017-07-08T04:49:49.473Z,39.70
2017-07-08T04:52:17.965Z,37.50
2017-07-08T04:54:46.470Z,37.10
2017-07-08T04:57:14.938Z,35.77
2017-07-08T04:59:43.474Z,38.77
2017-07-08T05:02:12.383Z,38.30
2017-07-08T05:04:41.678Z,38.17
2017-07-08T05:07:10.376Z,37.47
2017-07-08T05:09:38.817Z,37.20
2017-07-08T05:12:07.720Z,36.43
2017-07-08T05:14:36.185Z,37.20
2017-07-08T05:17:05.276Z,37.40
2017-07-08T05:19:33.966Z,36.00
2017-07-08T05:22:02.651Z,37.10
2017-07-08T05:24:31.235Z,39.47
2017-07-08T05:26:59.722Z,36.13
2017-07-08T05:29:28.386Z,38.90
2017-07-08T05:31:57.181Z,38.80
2017-07-08T05:34:25.793Z,37.93
2017-07-08T05:36:54.425Z,35.57
2017-07-08T05:39:22.918Z,36.53
2017-07-08T05:41:52.564Z,39.00
2017-07-08T05:44:21.657Z,36.70
2017-07-08T05:46:50.397Z,35.93
2017-07-08T05:49:18.892Z,35.33
2017-07-08T05:51:48.145Z,35.17
2017-07-08T05:54:16.737Z,30.97
2017-07-08T05:56:45.274Z,32.67
2017-07-08T05:59:14.069Z,30.20
2017-07-08T06:01:42.677Z,26.93
2017-07-08T06:04:11.574Z,25.83
2017-07-08T06:06:40.102Z,26.47
2017-07-08T06:09:10.705Z,27.40
2017-07-08T06:11:39.271Z,24.07
2017-07-08T06:14:07.985Z,22.93
2017-07-08T06:16:36.634Z,23.17
2017-07-08T06:19:05.085Z,23.43
2017-07-08T06:21:36.273Z,21.50
2017-07-08T06:24:04.948Z,20.40
2017-07-08T06:26:33.401Z,19.07
2017-07-08T06:29:01.950Z,19.80
2017-07-08T06:31:30.448Z,20.33
2017-07-08T06:33:59.277Z,20.90
2017-07-08T06:36:27.862Z,18.30
2017-07-08T06:38:56.560Z,20.33
2017-07-08T06:41:25.180Z,19.60
2017-07-08T06:43:53.659Z,20.10
2017-07-08T06:46:22.147Z,19.70
2017-07-08T06:48:50.644Z,17.30
2017-07-08T06:51:19.232Z,15.70
2017-07-08T06:53:47.765Z,17.30
2017-07-08T06:56:16.252Z,16.40
2017-07-08T06:58:45.113Z,13.10
2017-07-08T07:01:13.809Z,13.93
2017-07-08T07:03:42.280Z,14.70
2017-07-08T07:06:10.733Z,12.80
2017-07-08T07:08:39.494Z,12.80
2017-07-08T07:11:07.985Z,12.37
2017-07-08T07:13:36.590Z,10.70
2017-07-08T07:16:07.265Z,10.80
2017-07-08T07:21:03.968Z,9.17
2017-07-08T07:23:32.437Z,8.20
2017-07-08T11:23:06.434Z,3.03
2017-07-08T11:25:35.258Z,3.40
2017-07-08T11:28:04.080Z,3.30
2017-07-08T11:30:32.565Z,3.57
2017-07-08T11:33:01.079Z,3.20
2017-07-08T11:35:29.605Z,3.05
2017-07-08T11:37:58.190Z,3.43
2017-07-08T11:40:26.959Z,3.30
2017-07-08T11:42:56.519Z,3.63
2017-07-08T11:45:25.297Z,2.90
2017-07-08T11:52:52.861Z,3.80
